createdAt,value
2022-12-17T00:02:34.767Z,40.00
2022-12-17T00:05:20.223Z,35.72
2022-12-17T00:08:05.458Z,34.08
2022-12-17T00:10:51.039Z,35.50
2022-12-17T00:13:38.342Z,33.95
2022-12-17T00:16:25.017Z,31.88
2022-12-17T00:19:11.902Z,29.65
2022-12-17T00:21:57.131Z,29.88
2022-12-17T00:24:42.409Z,29.05
2022-12-17T00:27:39.383Z,28.80
2022-12-17T00:30:25.789Z,26.60
2022-12-17T00:33:11.211Z,28.80
2022-12-17T00:35:58.009Z,28.17
2022-12-17T00:38:43.047Z,26.88
2022-12-17T00:41:28.327Z,25.30
2022-12-17T00:44:14.247Z,23.85
2022-12-17T00:46:59.417Z,25.67
2022-12-17T00:49:44.562Z,25.10
2022-12-17T00:52:31.273Z,24.20
2022-12-17T00:55:16.858Z,21.58
2022-12-17T00:58:10.825Z,24.55
2022-12-17T01:00:56.385Z,23.23
2022-12-17T01:03:55.149Z,24.13
2022-12-17T01:06:44.035Z,25.98
2022-12-17T01:09:30.947Z,23.27
2022-12-17T01:12:16.370Z,25.10
2022-12-17T01:15:01.771Z,22.15
2022-12-17T01:17:47.243Z,22.85
2022-12-17T01:20:32.886Z,22.92
2022-12-17T01:23:18.144Z,23.00
2022-12-17T01:26:12.819Z,20.23
2022-12-17T01:28:58.535Z,22.25
2022-12-17T01:31:44.261Z,19.63
2022-12-17T01:34:30.021Z,22.95
2022-12-17T01:37:15.423Z,19.05
2022-12-17T01:40:00.792Z,19.15
2022-12-17T01:42:56.577Z,21.58
2022-12-17T01:45:41.695Z,24.45
2022-12-17T01:48:32.136Z,22.65
2022-12-17T01:51:14.386Z,23.05
2022-12-17T01:54:05.079Z,24.27
2022-12-17T01:56:50.901Z,21.17
2022-12-17T01:59:45.876Z,21.77
2022-12-17T02:02:31.468Z,23.20
2022-12-17T02:05:17.287Z,24.58
2022-12-17T02:08:13.465Z,23.10
2022-12-17T02:11:05.007Z,23.63
2022-12-17T02:13:55.691Z,23.05
2022-12-17T02:16:49.409Z,24.83
2022-12-17T02:19:49.232Z,23.48
2022-12-17T02:22:46.364Z,24.27
2022-12-17T02:25:40.851Z,25.38
2022-12-17T02:28:28.425Z,25.13
2022-12-17T02:31:14.886Z,24.55
2022-12-17T02:34:00.531Z,25.98
2022-12-17T02:36:46.310Z,22.63
2022-12-17T02:39:31.734Z,20.83
2022-12-17T02:42:17.777Z,26.30
2022-12-17T02:45:05.124Z,24.40
2022-12-17T02:47:50.545Z,23.98
2022-12-17T02:50:36.410Z,26.15
2022-12-17T02:53:22.907Z,24.08
2022-12-17T02:56:07.529Z,24.10
2022-12-17T02:58:52.735Z,27.90
2022-12-17T03:01:39.874Z,24.23
2022-12-17T03:04:25.384Z,25.20
2022-12-17T03:07:12.678Z,24.67
2022-12-17T03:09:58.328Z,22.88
2022-12-17T03:12:43.533Z,24.13
2022-12-17T03:15:43.441Z,22.63
2022-12-17T03:18:30.135Z,24.92
2022-12-17T03:21:15.117Z,25.88
2022-12-17T03:24:05.831Z,26.38
2022-12-17T03:26:51.390Z,22.13
2022-12-17T03:29:51.079Z,23.95
2022-12-17T03:32:36.642Z,24.40
2022-12-17T03:35:23.606Z,26.48
2022-12-17T03:38:09.146Z,24.52
2022-12-17T03:40:54.438Z,21.95
2022-12-17T03:43:39.780Z,24.05
2022-12-17T03:46:25.614Z,22.98
2022-12-17T03:49:11.071Z,25.95
2022-12-17T03:51:57.713Z,21.30
2022-12-17T03:54:42.929Z,21.88
2022-12-17T03:57:28.260Z,23.23
2022-12-17T04:00:15.292Z,20.55
2022-12-17T04:03:00.518Z,20.83
2022-12-17T04:05:46.223Z,20.40
2022-12-17T04:08:33.134Z,20.83
2022-12-17T04:11:20.677Z,18.63
2022-12-17T04:14:05.934Z,20.75
2022-12-17T04:16:51.387Z,17.90
2022-12-17T04:19:36.515Z,18.95
2022-12-17T04:22:21.883Z,19.65
2022-12-17T04:25:08.510Z,18.65
2022-12-17T04:27:53.885Z,20.13
2022-12-17T04:30:39.231Z,19.33
2022-12-17T04:33:24.575Z,18.35
2022-12-17T04:36:09.819Z,19.42
2022-12-17T04:38:55.176Z,19.15
2022-12-17T04:41:41.946Z,20.45
2022-12-17T04:44:26.472Z,20.05
2022-12-17T04:47:16.978Z,20.50
2022-12-17T04:50:02.394Z,20.90
2022-12-17T04:52:47.839Z,22.92
2022-12-17T04:55:33.009Z,19.80
2022-12-17T04:58:22.492Z,22.70
2022-12-17T05:01:10.549Z,22.92
2022-12-17T05:03:56.091Z,21.65
2022-12-17T05:06:41.538Z,26.27
2022-12-17T05:09:26.665Z,22.25
2022-12-17T05:12:11.945Z,19.52
2022-12-17T05:14:59.006Z,23.30
2022-12-17T05:17:44.430Z,21.85
2022-12-17T05:20:29.848Z,22.35
2022-12-17T05:23:15.337Z,23.30
2022-12-17T05:26:00.581Z,23.83
2022-12-17T05:28:45.944Z,24.50
2022-12-17T05:31:32.875Z,21.02
2022-12-17T05:34:19.227Z,21.85
2022-12-17T05:37:04.557Z,21.65
2022-12-17T05:39:49.900Z,20.50
2022-12-17T05:42:35.391Z,19.23
2022-12-17T05:45:21.036Z,21.52
2022-12-17T05:48:12.928Z,20.92
2022-12-17T05:50:58.436Z,21.17
2022-12-17T05:53:43.926Z,21.10
2022-12-17T05:56:29.215Z,21.20
2022-12-17T05:59:14.601Z,19.70
2022-12-17T06:01:59.975Z,19.48
2022-12-17T06:04:47.012Z,20.88
2022-12-17T06:07:37.863Z,20.08
2022-12-17T06:10:23.899Z,22.30
2022-12-17T06:13:14.637Z,21.95
2022-12-17T06:15:59.916Z,20.23
2022-12-17T06:18:45.657Z,20.67
2022-12-17T06:21:32.593Z,20.02
2022-12-17T06:24:17.783Z,20.98
2022-12-17T06:27:03.107Z,19.80
2022-12-17T06:29:48.263Z,19.75
2022-12-17T06:32:33.788Z,20.65
2022-12-17T06:35:18.744Z,18.08
2022-12-17T06:38:05.417Z,22.00
2022-12-17T06:40:50.902Z,21.33
2022-12-17T06:43:36.513Z,20.27
2022-12-17T06:46:22.053Z,19.25
2022-12-17T06:49:07.711Z,21.30
2022-12-17T06:51:53.155Z,19.98
2022-12-17T06:54:40.849Z,19.83
2022-12-17T06:57:25.974Z,18.73
2022-12-17T07:00:11.306Z,21.35
2022-12-17T07:02:56.911Z,20.25
2022-12-17T07:05:42.080Z,18.52
2022-12-17T07:08:27.558Z,19.45
2022-12-17T07:11:14.432Z,21.15
2022-12-17T07:13:59.804Z,21.83
2022-12-17T07:16:45.309Z,19.98
2022-12-17T07:19:30.793Z,22.20
2022-12-17T07:22:16.197Z,21.90
2022-12-17T07:25:01.840Z,20.98
2022-12-17T07:27:48.531Z,21.70
2022-12-17T07:30:36.727Z,21.35
2022-12-17T07:33:24.857Z,21.63
2022-12-17T07:36:11.722Z,20.75
2022-12-17T07:38:57.025Z,19.83
2022-12-17T07:41:42.388Z,20.55
2022-12-17T07:44:29.416Z,22.45
2022-12-17T07:47:14.937Z,20.77
2022-12-17T07:50:00.260Z,20.52
2022-12-17T07:52:45.936Z,20.42
2022-12-17T07:55:31.023Z,22.65
2022-12-17T07:58:17.588Z,20.05
2022-12-17T08:01:04.400Z,19.45
2022-12-17T08:03:52.071Z,19.35
2022-12-17T08:06:37.952Z,19.45
2022-12-17T08:09:23.637Z,20.00
2022-12-17T08:12:09.033Z,19.88
2022-12-17T08:14:54.888Z,19.40
2022-12-17T08:17:41.753Z,19.13
2022-12-17T08:20:28.859Z,19.33
2022-12-17T08:23:19.991Z,20.58
2022-12-17T08:26:05.284Z,20.35
2022-12-17T08:28:52.404Z,19.25
2022-12-17T08:31:38.331Z,20.75
2022-12-17T08:34:25.430Z,19.92
2022-12-17T08:37:11.192Z,20.15
2022-12-17T08:39:56.633Z,20.40
2022-12-17T08:42:42.044Z,19.27
2022-12-17T08:45:28.359Z,20.67
2022-12-17T08:48:21.339Z,22.13
2022-12-17T08:51:08.347Z,21.17
2022-12-17T08:53:54.197Z,20.13
2022-12-17T08:56:39.769Z,21.33
2022-12-17T08:59:25.001Z,19.48
2022-12-17T09:02:10.672Z,21.02
2022-12-17T09:04:56.426Z,21.52
2022-12-17T09:07:42.931Z,22.25
2022-12-17T09:10:28.279Z,21.67
2022-12-17T09:13:13.750Z,21.00
2022-12-17T09:15:59.033Z,23.42
2022-12-17T09:18:45.074Z,19.17
2022-12-17T09:21:30.309Z,22.40
2022-12-17T09:24:16.850Z,21.90
2022-12-17T09:27:02.273Z,23.08
2022-12-17T09:29:49.826Z,22.88
2022-12-17T09:32:35.162Z,23.00
2022-12-17T09:35:20.518Z,25.20
2022-12-17T09:38:11.107Z,23.98
2022-12-17T09:40:59.297Z,26.33
2022-12-17T09:43:50.629Z,24.45
2022-12-17T09:46:41.956Z,22.90
2022-12-17T09:49:36.667Z,24.98
2022-12-17T09:52:44.145Z,25.38
2022-12-17T09:55:39.893Z,21.95
2022-12-17T09:58:37.137Z,23.58
2022-12-17T10:01:23.928Z,23.98
2022-12-17T10:04:09.663Z,23.48
2022-12-17T10:06:56.191Z,23.00
2022-12-17T10:09:42.553Z,23.33
2022-12-17T10:12:33.753Z,22.05
2022-12-17T10:15:21.032Z,21.63
2022-12-17T10:18:08.366Z,21.77
2022-12-17T10:20:59.417Z,23.10
2022-12-17T10:23:47.037Z,21.83
2022-12-17T10:26:36.410Z,23.60
2022-12-17T10:29:23.812Z,24.30
2022-12-17T10:32:10.721Z,24.45
2022-12-17T10:35:03.310Z,26.60
2022-12-17T10:37:52.951Z,23.85
2022-12-17T10:40:44.423Z,25.77
2022-12-17T10:43:48.207Z,25.58
2022-12-17T10:46:45.098Z,25.48
2022-12-17T10:49:35.241Z,25.52
2022-12-17T10:52:35.925Z,25.77
2022-12-17T10:55:23.978Z,22.13
2022-12-17T10:58:12.793Z,24.48
2022-12-17T11:01:02.957Z,22.95
2022-12-17T11:04:04.198Z,24.00
2022-12-17T11:06:53.838Z,22.33
2022-12-17T11:09:53.581Z,24.00
2022-12-17T11:12:44.824Z,23.00
2022-12-17T11:15:38.322Z,25.25
2022-12-17T11:18:25.582Z,22.40
2022-12-17T11:21:25.654Z,23.25
2022-12-17T11:24:22.057Z,23.42
2022-12-17T11:27:11.781Z,24.35
2022-12-17T11:29:57.280Z,23.70
2022-12-17T11:32:56.784Z,23.20
2022-12-17T11:35:48.939Z,24.05
2022-12-17T11:38:43.375Z,26.17
2022-12-17T11:41:49.838Z,23.98
2022-12-17T11:44:49.427Z,23.42
2022-12-17T11:47:45.886Z,22.58
2022-12-17T11:50:41.270Z,21.38
2022-12-17T11:53:49.062Z,22.35
2022-12-17T11:56:43.748Z,22.33
2022-12-17T11:59:41.736Z,23.17
2022-12-17T12:02:39.271Z,23.63
2022-12-17T12:05:40.840Z,21.20
2022-12-17T12:08:34.739Z,23.20
2022-12-17T12:11:32.100Z,23.88
2022-12-17T12:14:28.088Z,23.48
2022-12-17T12:17:32.720Z,21.50
2022-12-17T12:20:26.920Z,21.88
2022-12-17T12:23:20.043Z,24.67
2022-12-17T12:26:21.020Z,22.20
2022-12-17T12:29:13.435Z,25.40
2022-12-17T12:32:09.860Z,21.85
2022-12-17T12:34:57.553Z,21.55
2022-12-17T12:37:42.965Z,22.90
2022-12-17T12:40:39.706Z,20.70
2022-12-17T12:43:36.580Z,21.40
2022-12-17T12:46:31.157Z,21.45
2022-12-17T12:49:26.669Z,20.08
2022-12-17T12:52:14.482Z,20.63
2022-12-17T12:55:14.388Z,19.08
2022-12-17T12:58:02.886Z,20.17
2022-12-17T13:00:54.247Z,20.05
2022-12-17T13:03:46.863Z,21.40
2022-12-17T13:06:41.684Z,23.92
2022-12-17T13:09:22.007Z,23.20
2022-12-17T13:11:57.557Z,19.77
2022-12-17T13:14:29.589Z,21.40
2022-12-17T13:17:02.662Z,18.60
2022-12-17T13:19:40.704Z,20.70
2022-12-17T13:22:28.579Z,18.65
2022-12-17T13:24:58.659Z,18.92
2022-12-17T13:27:32.003Z,20.48
2022-12-17T13:30:12.737Z,18.90
2022-12-17T13:32:49.197Z,19.70
2022-12-17T13:35:28.630Z,19.58
2022-12-17T13:38:17.690Z,19.27
2022-12-17T13:40:50.796Z,19.52
2022-12-17T13:43:21.109Z,17.92
2022-12-17T13:45:49.680Z,18.30
2022-12-17T13:48:25.788Z,18.35
2022-12-17T13:50:59.786Z,17.60
2022-12-17T13:53:30.166Z,18.45
2022-12-17T13:56:00.748Z,18.67
2022-12-17T13:58:30.291Z,20.25
2022-12-17T14:01:11.473Z,21.77
2022-12-17T14:04:05.397Z,21.92
2022-12-17T14:06:36.034Z,21.60
2022-12-17T14:09:08.610Z,22.13
2022-12-17T14:11:56.507Z,19.98
2022-12-17T14:14:31.318Z,21.13
2022-12-17T14:17:01.700Z,19.75
2022-12-17T14:19:32.113Z,19.40
2022-12-17T14:22:01.503Z,21.42
2022-12-17T14:24:31.312Z,20.27
2022-12-17T14:27:01.180Z,21.83
2022-12-17T14:29:31.342Z,21.38
2022-12-17T14:32:01.542Z,20.63
2022-12-17T14:34:30.104Z,44.75
2022-12-17T14:37:00.483Z,20.23
2022-12-17T14:39:32.048Z,21.00
2022-12-17T14:42:28.720Z,21.05
2022-12-17T14:45:01.459Z,22.30
2022-12-17T14:47:31.384Z,22.33
2022-12-17T14:50:02.821Z,20.65
2022-12-17T14:52:42.402Z,23.60
2022-12-17T14:55:26.098Z,19.60
2022-12-17T14:58:08.700Z,21.33
2022-12-17T15:00:39.563Z,22.83
2022-12-17T15:03:07.893Z,21.30
2022-12-17T15:05:36.740Z,20.33
2022-12-17T15:08:05.787Z,21.17
2022-12-17T15:10:36.843Z,21.10
2022-12-17T15:13:09.696Z,22.52
2022-12-17T15:15:37.811Z,20.73
2022-12-17T15:18:05.970Z,21.65
2022-12-17T15:20:33.889Z,22.70
2022-12-17T15:23:02.649Z,22.55
2022-12-17T15:25:30.717Z,21.48
2022-12-17T15:28:00.152Z,20.08
2022-12-17T15:30:28.116Z,18.60
2022-12-17T15:32:56.166Z,21.98
2022-12-17T15:35:25.849Z,23.23
2022-12-17T15:37:53.983Z,19.58
2022-12-17T15:40:23.079Z,19.48
2022-12-17T15:43:08.369Z,20.08
2022-12-17T15:45:37.740Z,21.48
2022-12-17T15:48:06.324Z,21.73
2022-12-17T15:50:34.608Z,21.55
2022-12-17T15:53:02.960Z,22.40
2022-12-17T15:55:31.092Z,21.75
2022-12-17T15:57:59.669Z,22.85
2022-12-17T16:00:27.778Z,21.58
2022-12-17T16:02:57.314Z,21.77
2022-12-17T16:05:25.774Z,19.08
2022-12-17T16:07:53.690Z,22.50
2022-12-17T16:10:21.840Z,20.80
2022-12-17T16:12:49.924Z,20.52
2022-12-17T16:15:18.011Z,23.13
2022-12-17T16:17:46.041Z,22.02
2022-12-17T16:20:18.053Z,21.85
2022-12-17T16:22:46.397Z,23.25
2022-12-17T16:25:14.496Z,23.73
2022-12-17T16:27:42.488Z,21.70
2022-12-17T16:30:11.519Z,22.02
2022-12-17T16:32:42.793Z,20.85
2022-12-17T16:35:10.977Z,21.90
2022-12-17T16:37:40.408Z,20.63
2022-12-17T16:40:09.828Z,22.92
2022-12-17T16:42:39.193Z,21.38
2022-12-17T16:45:09.014Z,23.25
2022-12-17T16:47:36.840Z,22.17
2022-12-17T16:50:05.122Z,23.77
2022-12-17T16:52:33.185Z,26.67
2022-12-17T16:55:02.486Z,22.80
2022-12-17T16:57:32.919Z,23.38
2022-12-17T17:00:01.014Z,22.17
2022-12-17T17:02:29.164Z,24.02
2022-12-17T17:04:57.123Z,23.98
2022-12-17T17:07:25.165Z,20.88
2022-12-17T17:09:53.010Z,19.67
2022-12-17T17:12:22.471Z,19.52
2022-12-17T17:14:53.420Z,22.10
2022-12-17T17:17:54.044Z,21.83
2022-12-17T17:20:12.402Z,21.75
2022-12-17T17:22:40.513Z,23.77
2022-12-17T17:25:09.445Z,20.27
2022-12-17T17:27:38.770Z,20.05
2022-12-17T17:30:07.930Z,22.50
2022-12-17T17:32:36.220Z,22.65
2022-12-17T17:35:05.807Z,20.58
2022-12-17T17:37:33.883Z,17.85
2022-12-17T17:40:04.707Z,20.08
2022-12-17T17:42:32.707Z,18.42
2022-12-17T17:45:03.370Z,20.08
2022-12-17T17:47:31.797Z,18.75
2022-12-17T17:49:59.744Z,23.63
2022-12-17T17:52:27.759Z,20.33
2022-12-17T17:55:04.975Z,19.00
2022-12-17T17:57:32.909Z,16.65
2022-12-17T18:00:05.139Z,19.13
2022-12-17T18:02:33.268Z,19.60
2022-12-17T18:05:01.774Z,19.88
2022-12-17T18:07:29.833Z,20.38
2022-12-17T18:09:59.636Z,19.70
2022-12-17T18:12:45.210Z,19.20
2022-12-17T18:15:16.329Z,19.45
2022-12-17T18:17:45.383Z,20.58
2022-12-17T18:20:13.515Z,20.00
2022-12-17T18:22:41.702Z,21.13
2022-12-17T18:25:10.501Z,21.73
2022-12-17T18:27:40.295Z,21.67
2022-12-17T18:30:09.230Z,22.08
2022-12-17T18:32:38.988Z,20.75
2022-12-17T18:35:07.985Z,21.48
2022-12-17T18:37:37.610Z,21.02
2022-12-17T18:40:06.663Z,19.13
2022-12-17T18:42:52.471Z,19.17
2022-12-17T18:45:20.416Z,19.65
2022-12-17T18:47:51.135Z,19.50
2022-12-17T18:50:19.204Z,18.25
2022-12-17T18:52:47.142Z,18.15
2022-12-17T18:55:15.281Z,19.75
2022-12-17T18:57:43.466Z,17.58
2022-12-17T19:00:12.690Z,21.65
2022-12-17T19:02:40.832Z,17.48
2022-12-17T19:05:11.410Z,17.15
2022-12-17T19:07:42.037Z,17.30
2022-12-17T19:10:10.930Z,19.25
2022-12-17T19:12:39.262Z,17.00
2022-12-17T19:15:16.276Z,23.45
2022-12-17T19:17:44.357Z,17.25
2022-12-17T19:20:13.756Z,16.98
2022-12-17T19:22:41.819Z,17.27
2022-12-17T19:25:12.363Z,17.85
2022-12-17T19:27:40.599Z,18.05
2022-12-17T19:30:10.318Z,18.90
2022-12-17T19:32:38.211Z,17.48
2022-12-17T19:35:06.864Z,16.45
2022-12-17T19:37:36.202Z,18.85
2022-12-17T19:40:04.158Z,17.80
2022-12-17T19:42:37.407Z,16.90
2022-12-17T19:45:06.348Z,16.60
2022-12-17T19:47:34.294Z,18.38
2022-12-17T19:50:02.291Z,18.15
2022-12-17T19:52:30.801Z,17.08
2022-12-17T19:55:00.091Z,17.77
2022-12-17T19:57:28.113Z,17.27
2022-12-17T19:59:56.086Z,17.27
2022-12-17T20:02:32.245Z,19.60
2022-12-17T20:05:00.584Z,16.80
2022-12-17T20:07:28.452Z,16.42
2022-12-17T20:09:56.300Z,15.50
2022-12-17T20:12:25.788Z,15.57
2022-12-17T20:14:53.670Z,16.05
2022-12-17T20:17:21.566Z,17.30
2022-12-17T20:19:52.239Z,17.00
2022-12-17T20:22:22.400Z,15.90
2022-12-17T20:24:53.204Z,17.55
2022-12-17T20:27:30.124Z,17.15
2022-12-17T20:29:58.172Z,17.85
2022-12-17T20:32:26.162Z,16.85
2022-12-17T20:34:54.194Z,16.30
2022-12-17T20:37:22.381Z,17.33
2022-12-17T20:39:50.528Z,15.55
2022-12-17T20:42:18.853Z,16.17
2022-12-17T20:44:53.255Z,15.10
2022-12-17T20:47:21.619Z,13.98
2022-12-17T20:49:49.577Z,15.52
2022-12-17T20:52:17.599Z,15.32
2022-12-17T20:54:45.504Z,15.23
2022-12-17T20:57:15.503Z,15.57
2022-12-17T20:59:43.454Z,15.95
2022-12-17T21:02:12.939Z,15.50
2022-12-17T21:04:40.987Z,15.43
2022-12-17T21:07:08.797Z,15.50
2022-12-17T21:09:36.944Z,15.00
2022-12-17T21:12:07.621Z,15.18
2022-12-17T21:14:36.068Z,16.33
2022-12-17T21:17:05.095Z,15.82
2022-12-17T21:19:34.623Z,11.80
2022-12-17T21:22:02.469Z,15.45
2022-12-17T21:24:30.489Z,15.73
2022-12-17T21:26:58.706Z,18.17
2022-12-17T21:29:26.554Z,14.27
2022-12-17T21:31:54.534Z,14.15
2022-12-17T21:34:25.163Z,16.00
2022-12-17T21:36:54.563Z,16.20
2022-12-17T21:39:22.934Z,15.38
2022-12-17T21:42:05.158Z,15.57
2022-12-17T21:44:33.219Z,14.82
2022-12-17T21:47:02.040Z,13.40
2022-12-17T21:49:30.038Z,14.82
2022-12-17T21:52:00.629Z,14.98
2022-12-17T21:54:28.787Z,15.27
2022-12-17T21:56:56.702Z,16.63
2022-12-17T21:59:24.944Z,15.75
2022-12-17T22:01:53.960Z,15.60
2022-12-17T22:04:22.238Z,17.63
2022-12-17T22:06:51.858Z,16.63
2022-12-17T22:09:44.400Z,14.73
2022-12-17T22:12:39.291Z,15.23
2022-12-17T22:15:10.996Z,16.08
2022-12-17T22:17:40.180Z,15.85
2022-12-17T22:20:09.562Z,18.98
2022-12-17T22:22:37.664Z,13.15
2022-12-17T22:25:08.482Z,13.52
2022-12-17T22:27:39.477Z,15.13
2022-12-17T22:30:26.483Z,14.45
2022-12-17T22:33:00.650Z,15.73
2022-12-17T22:37:09.333Z,14.13
2022-12-17T22:43:11.651Z,14.60
2022-12-17T22:44:37.448Z,14.35
2022-12-17T22:44:51.175Z,16.20
2022-12-17T22:47:08.631Z,14.00
2022-12-17T22:49:36.727Z,14.40
2022-12-17T22:52:04.830Z,15.57
2022-12-17T22:54:33.759Z,14.55
2022-12-17T22:57:34.627Z,14.52
2022-12-17T22:59:51.732Z,15.73
2022-12-17T23:02:23.474Z,16.15
2022-12-17T23:04:51.391Z,15.77
2022-12-17T23:07:19.250Z,12.82
2022-12-17T23:09:47.068Z,14.98
2022-12-17T23:12:33.617Z,15.82
2022-12-17T23:15:01.676Z,16.48
2022-12-17T23:17:29.564Z,14.20
2022-12-17T23:19:57.437Z,15.35
2022-12-17T23:22:25.372Z,16.20
2022-12-17T23:24:53.309Z,14.88
2022-12-17T23:27:22.508Z,16.02
2022-12-17T23:29:50.594Z,14.88
2022-12-17T23:32:18.391Z,15.23
2022-12-17T23:34:46.224Z,14.32
2022-12-17T23:37:14.119Z,14.18
2022-12-17T23:39:41.917Z,13.57
2022-12-17T23:42:09.702Z,14.25
2022-12-17T23:44:38.893Z,13.73
2022-12-17T23:47:06.750Z,14.45
2022-12-17T23:49:34.744Z,14.85
2022-12-17T23:52:02.666Z,14.30
2022-12-17T23:54:30.643Z,15.73
2022-12-17T23:56:58.498Z,14.15
2022-12-17T23:59:26.370Z,14.65
